createdAt,value
2022-09-28T00:03:36.670Z,13.49
2022-09-28T00:08:39.259Z,13.44
2022-09-28T00:13:42.833Z,13.39
2022-09-28T00:18:45.842Z,13.37
2022-09-28T00:23:53.927Z,13.36
2022-09-28T00:28:59.065Z,13.35
2022-09-28T00:34:04.771Z,13.30
2022-09-28T00:39:11.633Z,13.28
2022-09-28T00:44:17.098Z,13.29
2022-09-28T00:49:22.988Z,13.36
2022-09-28T00:54:26.039Z,13.41
2022-09-28T00:59:29.193Z,13.42
2022-09-28T01:04:33.202Z,13.43
2022-09-28T01:09:38.188Z,13.44
2022-09-28T01:14:41.154Z,13.44
2022-09-28T01:19:46.506Z,13.39
2022-09-28T01:24:56.103Z,13.27
2022-09-28T01:30:01.569Z,13.05
2022-09-28T01:35:06.938Z,12.84
2022-09-28T01:40:09.994Z,12.68
2022-09-28T01:45:18.191Z,12.52
2022-09-28T01:50:22.694Z,12.30
2022-09-28T01:55:31.554Z,12.13
2022-09-28T02:00:36.025Z,12.02
2022-09-28T02:05:40.941Z,11.95
2022-09-28T02:10:46.293Z,11.89
2022-09-28T02:15:51.691Z,11.79
2022-09-28T02:20:57.463Z,11.69
2022-09-28T02:26:02.071Z,11.58
2022-09-28T02:31:04.617Z,11.38
2022-09-28T02:36:07.225Z,11.17
2022-09-28T02:41:12.585Z,11.01
2022-09-28T02:46:15.502Z,10.89
2022-09-28T02:51:17.923Z,10.78
2022-09-28T02:56:22.873Z,10.69
2022-09-28T03:01:33.291Z,10.64
2022-09-28T03:06:38.612Z,10.58
2022-09-28T03:11:45.775Z,10.53
2022-09-28T03:16:48.406Z,10.53
2022-09-28T03:21:50.884Z,10.50
2022-09-28T03:26:53.317Z,10.46
2022-09-28T03:31:55.782Z,10.45
2022-09-28T03:36:58.409Z,10.47
2022-09-28T03:42:01.300Z,10.52
2022-09-28T03:47:03.745Z,10.53
2022-09-28T03:52:06.181Z,10.58
2022-09-28T03:57:09.139Z,10.62
2022-09-28T04:02:11.614Z,10.63
2022-09-28T04:07:14.125Z,10.67
2022-09-28T04:12:16.625Z,10.71
2022-09-28T04:17:19.195Z,10.72
2022-09-28T04:22:21.635Z,10.72
2022-09-28T04:27:26.986Z,10.71
2022-09-28T04:32:29.413Z,10.71
2022-09-28T04:37:32.138Z,10.69
2022-09-28T04:42:34.538Z,10.68
2022-09-28T04:47:36.943Z,10.71
2022-09-28T04:52:39.350Z,10.74
2022-09-28T04:57:41.825Z,10.74
2022-09-28T05:02:44.713Z,10.72
2022-09-28T05:07:47.343Z,10.69
2022-09-28T05:12:49.730Z,10.65
2022-09-28T05:17:52.573Z,10.66
2022-09-28T05:22:55.101Z,10.70
2022-09-28T05:27:57.978Z,10.79
2022-09-28T05:33:00.375Z,10.94
2022-09-28T05:38:03.967Z,10.98
2022-09-28T05:43:06.420Z,10.95
2022-09-28T05:48:09.169Z,10.90
2022-09-28T05:53:11.643Z,10.92
2022-09-28T05:58:14.300Z,10.95
2022-09-28T06:03:16.797Z,10.95
2022-09-28T06:14:59.963Z,11.02
2022-09-28T06:20:04.238Z,11.10
2022-09-28T06:25:08.468Z,11.17
2022-09-28T06:30:11.319Z,11.25
2022-09-28T06:35:15.827Z,11.32
2022-09-28T06:40:18.769Z,11.26
2022-09-28T06:45:24.427Z,11.23
2022-09-28T06:50:37.375Z,11.26
2022-09-28T06:55:40.719Z,11.27
2022-09-28T07:00:43.578Z,11.27
2022-09-28T07:11:39.542Z,11.55
2022-09-28T07:17:10.065Z,11.63
2022-09-28T07:22:05.648Z,11.54
2022-09-28T07:27:08.771Z,11.31
2022-09-28T07:32:11.182Z,11.34
2022-09-28T07:37:13.795Z,11.41
2022-09-28T07:42:16.705Z,11.51
2022-09-28T07:47:30.777Z,11.60
2022-09-28T07:52:36.136Z,11.59
2022-09-28T07:57:40.122Z,11.62
2022-09-28T08:02:42.782Z,11.67
2022-09-28T08:07:45.556Z,11.64
2022-09-28T08:12:48.163Z,11.60
2022-09-28T08:17:51.485Z,11.50
2022-09-28T08:22:54.227Z,11.54
2022-09-28T08:27:56.903Z,11.63
2022-09-28T08:32:59.455Z,11.66
2022-09-28T08:38:03.353Z,11.84
2022-09-28T08:43:14.503Z,12.12
2022-09-28T08:48:24.638Z,12.44
2022-09-28T08:53:27.020Z,12.60
2022-09-28T08:58:32.906Z,12.78
2022-09-28T09:03:37.646Z,13.11
2022-09-28T09:08:40.999Z,13.63
2022-09-28T09:13:45.673Z,13.76
2022-09-28T09:18:54.374Z,13.97
2022-09-28T09:24:03.509Z,14.30
2022-09-28T09:29:09.872Z,14.31
2022-09-28T09:34:15.443Z,14.10
2022-09-28T09:39:27.616Z,14.25
2022-09-28T09:44:39.800Z,14.59
2022-09-28T09:56:36.132Z,16.27
2022-09-28T10:01:40.684Z,17.29
2022-09-28T10:06:43.576Z,17.47
2022-09-28T10:11:50.091Z,16.84
2022-09-28T10:16:53.771Z,16.20
2022-09-28T10:21:58.435Z,15.86
2022-09-28T10:27:04.360Z,15.67
2022-09-28T10:32:17.566Z,15.52
2022-09-28T10:37:20.011Z,15.50
2022-09-28T10:42:25.944Z,15.75
2022-09-28T10:47:31.235Z,15.56
2022-09-28T10:52:33.630Z,15.19
2022-09-28T10:57:36.717Z,15.23
2022-09-28T11:02:40.202Z,15.57
2022-09-28T11:07:46.895Z,15.33
2022-09-28T11:12:49.644Z,14.98
2022-09-28T11:17:52.385Z,14.60
2022-09-28T11:22:55.750Z,14.17
2022-09-28T11:27:59.918Z,13.73
2022-09-28T11:33:05.266Z,13.50
2022-09-28T11:38:10.669Z,13.36
2022-09-28T11:43:16.871Z,13.46
2022-09-28T11:48:23.775Z,13.98
2022-09-28T11:53:31.395Z,14.80
2022-09-28T11:58:36.771Z,15.44
2022-09-28T12:03:41.115Z,15.82
2022-09-28T12:08:49.195Z,16.09
2022-09-28T12:13:54.078Z,16.17
2022-09-28T12:19:03.849Z,16.19
2022-09-28T12:24:09.248Z,16.37
2022-09-28T12:29:14.535Z,16.61
2022-09-28T12:34:17.138Z,16.80
2022-09-28T12:39:46.691Z,16.84
2022-09-28T12:44:59.456Z,16.91
2022-09-28T12:50:37.692Z,17.37
2022-09-28T12:55:30.418Z,17.83
2022-09-28T13:00:35.952Z,18.00
2022-09-28T13:05:41.260Z,17.72
2022-09-28T13:10:55.190Z,17.24
2022-09-28T13:15:58.740Z,16.82
2022-09-28T13:21:04.702Z,16.66
2022-09-28T13:26:13.957Z,16.74
2022-09-28T13:31:20.247Z,16.88
2022-09-28T13:36:27.845Z,16.77
2022-09-28T13:41:33.991Z,16.57
2022-09-28T13:46:39.347Z,16.46
2022-09-28T13:51:49.785Z,16.47
2022-09-28T13:56:54.870Z,16.67
2022-09-28T14:02:06.631Z,17.11
2022-09-28T14:07:15.198Z,17.73
2022-09-28T14:12:20.653Z,18.23
2022-09-28T14:17:25.488Z,17.91
2022-09-28T14:22:34.569Z,17.20
2022-09-28T14:27:40.108Z,16.48
2022-09-28T14:32:48.496Z,16.03
2022-09-28T14:37:56.597Z,15.93
2022-09-28T14:43:01.939Z,17.23
2022-09-28T14:48:11.452Z,18.28
2022-09-28T14:53:19.482Z,17.94
2022-09-28T14:58:24.892Z,18.32
2022-09-28T15:03:28.864Z,18.23
2022-09-28T15:08:35.264Z,17.87
2022-09-28T15:13:40.781Z,17.92
2022-09-28T15:18:46.105Z,18.23
2022-09-28T15:23:49.723Z,17.79
2022-09-28T15:28:52.161Z,17.14
2022-09-28T15:33:57.651Z,16.26
2022-09-28T15:39:01.371Z,15.76
2022-09-28T15:44:07.177Z,15.78
2022-09-28T15:49:12.647Z,15.65
2022-09-28T15:54:19.340Z,15.02
2022-09-28T15:59:26.204Z,14.37
2022-09-28T16:04:31.574Z,13.83
2022-09-28T16:09:38.924Z,13.40
2022-09-28T16:14:47.595Z,12.98
2022-09-28T16:19:50.088Z,12.58
2022-09-28T16:24:54.951Z,12.20
2022-09-28T16:30:05.066Z,11.88
2022-09-28T16:35:10.747Z,11.68
2022-09-28T16:40:13.724Z,11.54
2022-09-28T16:45:17.997Z,11.43
2022-09-28T16:50:21.179Z,11.37
2022-09-28T16:55:39.612Z,11.31
2022-09-28T17:00:43.404Z,11.28
2022-09-28T17:05:47.872Z,11.32
2022-09-28T17:11:13.799Z,11.39
2022-09-28T17:16:18.313Z,11.41
2022-09-28T17:21:20.802Z,11.37
2022-09-28T17:26:27.787Z,11.33
2022-09-28T17:31:30.422Z,11.30
2022-09-28T17:36:32.852Z,11.30
2022-09-28T17:41:37.208Z,11.34
2022-09-28T17:46:45.753Z,11.33
2022-09-28T17:51:50.037Z,11.27
2022-09-28T17:56:52.442Z,11.18
2022-09-28T18:01:54.897Z,11.04
2022-09-28T18:06:57.566Z,10.92
2022-09-28T18:12:01.008Z,10.85
2022-09-28T18:17:03.639Z,10.81
2022-09-28T18:22:06.080Z,10.79
2022-09-28T18:27:08.552Z,10.82
2022-09-28T18:32:11.137Z,10.82
2022-09-28T18:37:13.634Z,10.78
2022-09-28T18:42:16.314Z,10.75
2022-09-28T18:47:19.119Z,10.75
2022-09-28T18:52:21.569Z,10.79
2022-09-28T18:57:24.221Z,10.79
2022-09-28T19:02:27.306Z,10.80
2022-09-28T19:07:31.218Z,10.75
2022-09-28T19:12:33.730Z,10.71
2022-09-28T19:17:36.234Z,10.69
2022-09-28T19:22:38.725Z,10.71
2022-09-28T19:27:41.316Z,10.75
2022-09-28T19:32:44.115Z,10.77
2022-09-28T19:37:46.708Z,10.77
2022-09-28T19:42:49.260Z,10.76
2022-09-28T19:47:55.095Z,10.77
2022-09-28T19:53:01.669Z,10.79
2022-09-28T19:58:04.187Z,10.83
2022-09-28T20:03:06.755Z,10.79
2022-09-28T20:08:09.717Z,10.73
2022-09-28T20:13:12.219Z,10.70
2022-09-28T20:18:15.222Z,10.64
2022-09-28T20:23:17.898Z,10.57
2022-09-28T20:28:20.356Z,10.46
2022-09-28T20:33:28.840Z,10.35
2022-09-28T20:38:31.572Z,10.27
2022-09-28T20:43:34.866Z,10.20
2022-09-28T20:48:37.309Z,10.13
2022-09-28T20:53:40.401Z,10.06
2022-09-28T20:58:42.870Z,9.98
2022-09-28T21:03:48.639Z,9.95
2022-09-28T21:08:51.617Z,9.93
2022-09-28T21:13:55.089Z,9.88
2022-09-28T21:18:58.098Z,9.81
2022-09-28T21:24:00.730Z,9.86
2022-09-28T21:29:05.743Z,9.94
2022-09-28T21:34:13.348Z,9.98
2022-09-28T21:39:15.974Z,9.99
2022-09-28T21:44:18.653Z,9.95
2022-09-28T21:49:21.293Z,9.92
2022-09-28T21:54:23.794Z,9.95
2022-09-28T21:59:26.283Z,9.91
2022-09-28T22:04:28.751Z,9.87
2022-09-28T22:09:31.404Z,9.83
2022-09-28T22:14:33.882Z,9.86
2022-09-28T22:19:36.375Z,9.92
2022-09-28T22:24:38.903Z,9.96
2022-09-28T22:29:42.051Z,9.97
2022-09-28T22:34:44.540Z,9.97
2022-09-28T22:39:47.354Z,9.98
2022-09-28T22:44:49.910Z,9.98
2022-09-28T22:49:52.352Z,9.92
2022-09-28T22:54:54.783Z,9.79
2022-09-28T22:59:57.329Z,9.67
2022-09-28T23:04:59.770Z,9.70
2022-09-28T23:10:02.211Z,9.78
2022-09-28T23:15:05.667Z,9.83
2022-09-28T23:20:08.449Z,9.80
2022-09-28T23:25:10.884Z,9.79
2022-09-28T23:30:13.852Z,9.76
2022-09-28T23:35:16.335Z,9.75
2022-09-28T23:40:20.007Z,9.80
2022-09-28T23:45:22.579Z,9.80
2022-09-28T23:50:25.109Z,9.78
2022-09-28T23:55:27.703Z,9.80
